sensor_id;sensor_type;location;lat;lon;timestamp;pressure;altitude;pressure_sealevel;temperature
16956;BMP180;8594;52.052;8.354;2023-07-20T00:02:01;100402.00;;;21.90
16956;BMP180;8594;52.052;8.354;2023-07-20T00:04:30;100392.00;;;22.00
16956;BMP180;8594;52.052;8.354;2023-07-20T00:06:57;100394.00;;;22.10
16956;BMP180;8594;52.052;8.354;2023-07-20T00:09:26;100389.00;;;21.80
16956;BMP180;8594;52.052;8.354;2023-07-20T00:11:53;100391.00;;;21.70
16956;BMP180;8594;52.052;8.354;2023-07-20T00:14:20;100388.00;;;21.90
16956;BMP180;8594;52.052;8.354;2023-07-20T00:16:50;100391.00;;;21.90
16956;BMP180;8594;52.052;8.354;2023-07-20T00:19:21;100385.00;;;21.70
16956;BMP180;8594;52.052;8.354;2023-07-20T00:21:49;100383.00;;;21.70
16956;BMP180;8594;52.052;8.354;2023-07-20T00:24:16;100386.00;;;21.70
16956;BMP180;8594;52.052;8.354;2023-07-20T00:26:44;100385.00;;;21.70
16956;BMP180;8594;52.052;8.354;2023-07-20T00:29:11;100385.00;;;21.60
16956;BMP180;8594;52.052;8.354;2023-07-20T00:31:38;100392.00;;;21.70
16956;BMP180;8594;52.052;8.354;2023-07-20T00:34:05;100382.00;;;21.70
16956;BMP180;8594;52.052;8.354;2023-07-20T00:36:32;100385.00;;;21.40
16956;BMP180;8594;52.052;8.354;2023-07-20T00:38:59;100392.00;;;21.40
16956;BMP180;8594;52.052;8.354;2023-07-20T00:41:26;100389.00;;;21.40
16956;BMP180;8594;52.052;8.354;2023-07-20T00:43:56;100387.00;;;21.60
16956;BMP180;8594;52.052;8.354;2023-07-20T00:46:23;100389.00;;;21.30
16956;BMP180;8594;52.052;8.354;2023-07-20T00:48:52;100387.00;;;21.30
16956;BMP180;8594;52.052;8.354;2023-07-20T00:51:21;100381.00;;;21.40
16956;BMP180;8594;52.052;8.354;2023-07-20T00:53:48;100369.00;;;21.50
16956;BMP180;8594;52.052;8.354;2023-07-20T00:56:15;100373.00;;;21.20
16956;BMP180;8594;52.052;8.354;2023-07-20T00:58:42;100378.00;;;21.30
16956;BMP180;8594;52.052;8.354;2023-07-20T01:01:11;100379.00;;;21.30
16956;BMP180;8594;52.052;8.354;2023-07-20T01:03:38;100374.00;;;21.30
16956;BMP180;8594;52.052;8.354;2023-07-20T01:06:15;100373.00;;;21.30
16956;BMP180;8594;52.052;8.354;2023-07-20T01:09:05;100378.00;;;21.30
16956;BMP180;8594;52.052;8.354;2023-07-20T01:11:41;100369.00;;;21.00
16956;BMP180;8594;52.052;8.354;2023-07-20T01:14:11;100366.00;;;21.10
16956;BMP180;8594;52.052;8.354;2023-07-20T01:16:40;100373.00;;;21.20
16956;BMP180;8594;52.052;8.354;2023-07-20T01:19:06;100365.00;;;21.20
16956;BMP180;8594;52.052;8.354;2023-07-20T01:21:44;100365.00;;;21.10
16956;BMP180;8594;52.052;8.354;2023-07-20T01:28:27;100367.00;;;21.00
16956;BMP180;8594;52.052;8.354;2023-07-20T01:31:21;100359.00;;;21.00
16956;BMP180;8594;52.052;8.354;2023-07-20T01:33:50;100356.00;;;20.90
16956;BMP180;8594;52.052;8.354;2023-07-20T01:36:19;100363.00;;;21.00
16956;BMP180;8594;52.052;8.354;2023-07-20T01:38:47;100361.00;;;20.90
16956;BMP180;8594;52.052;8.354;2023-07-20T01:41:15;100361.00;;;21.00
16956;BMP180;8594;52.052;8.354;2023-07-20T01:43:42;100356.00;;;21.00
16956;BMP180;8594;52.052;8.354;2023-07-20T01:46:10;100364.00;;;21.00
16956;BMP180;8594;52.052;8.354;2023-07-20T01:48:37;100363.00;;;20.80
16956;BMP180;8594;52.052;8.354;2023-07-20T01:51:04;100357.00;;;20.90
16956;BMP180;8594;52.052;8.354;2023-07-20T01:53:31;100365.00;;;20.90
16956;BMP180;8594;52.052;8.354;2023-07-20T01:55:58;100358.00;;;20.90
16956;BMP180;8594;52.052;8.354;2023-07-20T01:58:25;100356.00;;;20.90
16956;BMP180;8594;52.052;8.354;2023-07-20T02:00:52;100356.00;;;20.70
16956;BMP180;8594;52.052;8.354;2023-07-20T02:03:20;100354.00;;;20.70
16956;BMP180;8594;52.052;8.354;2023-07-20T02:05:49;100355.00;;;20.70
16956;BMP180;8594;52.052;8.354;2023-07-20T02:08:16;100356.00;;;20.70
16956;BMP180;8594;52.052;8.354;2023-07-20T02:10:45;100346.00;;;20.80
16956;BMP180;8594;52.052;8.354;2023-07-20T02:13:12;100362.00;;;20.60
16956;BMP180;8594;52.052;8.354;2023-07-20T02:15:39;100360.00;;;20.60
16956;BMP180;8594;52.052;8.354;2023-07-20T02:18:06;100364.00;;;20.70
16956;BMP180;8594;52.052;8.354;2023-07-20T02:20:34;100356.00;;;20.80
16956;BMP180;8594;52.052;8.354;2023-07-20T02:23:01;100360.00;;;20.90
16956;BMP180;8594;52.052;8.354;2023-07-20T02:25:28;100365.00;;;20.80
16956;BMP180;8594;52.052;8.354;2023-07-20T02:27:56;100363.00;;;20.80
16956;BMP180;8594;52.052;8.354;2023-07-20T02:30:24;100356.00;;;20.80
16956;BMP180;8594;52.052;8.354;2023-07-20T02:32:51;100352.00;;;21.00
16956;BMP180;8594;52.052;8.354;2023-07-20T02:35:17;100351.00;;;21.00
16956;BMP180;8594;52.052;8.354;2023-07-20T02:37:46;100343.00;;;20.70
16956;BMP180;8594;52.052;8.354;2023-07-20T02:40:13;100343.00;;;20.70
16956;BMP180;8594;52.052;8.354;2023-07-20T02:42:39;100342.00;;;20.40
16956;BMP180;8594;52.052;8.354;2023-07-20T02:45:07;100333.00;;;20.60
16956;BMP180;8594;52.052;8.354;2023-07-20T02:47:34;100337.00;;;20.80
16956;BMP180;8594;52.052;8.354;2023-07-20T02:50:01;100351.00;;;20.90
16956;BMP180;8594;52.052;8.354;2023-07-20T02:52:28;100349.00;;;20.80
16956;BMP180;8594;52.052;8.354;2023-07-20T02:54:57;100352.00;;;20.40
16956;BMP180;8594;52.052;8.354;2023-07-20T02:57:24;100360.00;;;20.40
16956;BMP180;8594;52.052;8.354;2023-07-20T02:59:50;100354.00;;;20.40
16956;BMP180;8594;52.052;8.354;2023-07-20T03:02:17;100359.00;;;20.70
16956;BMP180;8594;52.052;8.354;2023-07-20T03:04:44;100355.00;;;20.60
16956;BMP180;8594;52.052;8.354;2023-07-20T03:07:11;100358.00;;;20.30
16956;BMP180;8594;52.052;8.354;2023-07-20T03:09:38;100369.00;;;20.40
16956;BMP180;8594;52.052;8.354;2023-07-20T03:12:08;100369.00;;;20.50
16956;BMP180;8594;52.052;8.354;2023-07-20T03:14:35;100368.00;;;20.50
16956;BMP180;8594;52.052;8.354;2023-07-20T03:17:02;100365.00;;;20.90
16956;BMP180;8594;52.052;8.354;2023-07-20T03:19:28;100366.00;;;20.90
16956;BMP180;8594;52.052;8.354;2023-07-20T03:21:55;100368.00;;;20.80
16956;BMP180;8594;52.052;8.354;2023-07-20T03:24:22;100370.00;;;20.90
16956;BMP180;8594;52.052;8.354;2023-07-20T03:26:50;100372.00;;;20.50
16956;BMP180;8594;52.052;8.354;2023-07-20T03:29:18;100376.00;;;20.20
16956;BMP180;8594;52.052;8.354;2023-07-20T03:31:45;100381.00;;;19.90
16956;BMP180;8594;52.052;8.354;2023-07-20T03:34:12;100386.00;;;19.50
16956;BMP180;8594;52.052;8.354;2023-07-20T03:36:39;100381.00;;;19.20
16956;BMP180;8594;52.052;8.354;2023-07-20T03:39:05;100387.00;;;19.40
16956;BMP180;8594;52.052;8.354;2023-07-20T03:41:32;100379.00;;;19.10
16956;BMP180;8594;52.052;8.354;2023-07-20T03:43:59;100369.00;;;19.20
16956;BMP180;8594;52.052;8.354;2023-07-20T03:46:27;100376.00;;;19.50
16956;BMP180;8594;52.052;8.354;2023-07-20T03:48:54;100384.00;;;19.40
16956;BMP180;8594;52.052;8.354;2023-07-20T03:51:21;100385.00;;;19.00
16956;BMP180;8594;52.052;8.354;2023-07-20T03:53:48;100394.00;;;19.20
16956;BMP180;8594;52.052;8.354;2023-07-20T03:56:14;100394.00;;;19.10
16956;BMP180;8594;52.052;8.354;2023-07-20T03:58:41;100388.00;;;18.60
16956;BMP180;8594;52.052;8.354;2023-07-20T04:01:08;100392.00;;;18.80
16956;BMP180;8594;52.052;8.354;2023-07-20T04:03:37;100389.00;;;18.80
16956;BMP180;8594;52.052;8.354;2023-07-20T04:06:04;100390.00;;;18.80
16956;BMP180;8594;52.052;8.354;2023-07-20T04:08:31;100393.00;;;18.90
16956;BMP180;8594;52.052;8.354;2023-07-20T04:11:01;100392.00;;;19.10
16956;BMP180;8594;52.052;8.354;2023-07-20T04:13:27;100395.00;;;19.10
16956;BMP180;8594;52.052;8.354;2023-07-20T04:15:54;100396.00;;;19.20
16956;BMP180;8594;52.052;8.354;2023-07-20T04:18:21;100407.00;;;18.90
16956;BMP180;8594;52.052;8.354;2023-07-20T04:20:50;100403.00;;;18.90
16956;BMP180;8594;52.052;8.354;2023-07-20T04:23:17;100400.00;;;18.70
16956;BMP180;8594;52.052;8.354;2023-07-20T04:25:44;100397.00;;;18.80
16956;BMP180;8594;52.052;8.354;2023-07-20T04:28:11;100402.00;;;18.60
16956;BMP180;8594;52.052;8.354;2023-07-20T04:30:39;100397.00;;;18.30
16956;BMP180;8594;52.052;8.354;2023-07-20T04:33:06;100400.00;;;18.50
16956;BMP180;8594;52.052;8.354;2023-07-20T04:35:48;100403.00;;;18.50
16956;BMP180;8594;52.052;8.354;2023-07-20T04:38:17;100407.00;;;18.50
16956;BMP180;8594;52.052;8.354;2023-07-20T04:40:45;100415.00;;;18.40
16956;BMP180;8594;52.052;8.354;2023-07-20T04:43:12;100417.00;;;18.50
16956;BMP180;8594;52.052;8.354;2023-07-20T04:45:39;100410.00;;;18.60
16956;BMP180;8594;52.052;8.354;2023-07-20T04:48:10;100415.00;;;18.60
16956;BMP180;8594;52.052;8.354;2023-07-20T04:50:37;100414.00;;;18.80
16956;BMP180;8594;52.052;8.354;2023-07-20T04:53:04;100414.00;;;18.70
16956;BMP180;8594;52.052;8.354;2023-07-20T04:55:32;100415.00;;;19.00
16956;BMP180;8594;52.052;8.354;2023-07-20T04:58:00;100407.00;;;18.80
16956;BMP180;8594;52.052;8.354;2023-07-20T05:00:27;100416.00;;;18.50
16956;BMP180;8594;52.052;8.354;2023-07-20T05:02:54;100413.00;;;18.50
16956;BMP180;8594;52.052;8.354;2023-07-20T05:05:20;100419.00;;;18.90
16956;BMP180;8594;52.052;8.354;2023-07-20T05:07:48;100411.00;;;19.20
16956;BMP180;8594;52.052;8.354;2023-07-20T05:10:14;100408.00;;;19.20
16956;BMP180;8594;52.052;8.354;2023-07-20T05:12:43;100419.00;;;19.50
16956;BMP180;8594;52.052;8.354;2023-07-20T05:15:10;100433.00;;;19.40
16956;BMP180;8594;52.052;8.354;2023-07-20T05:17:37;100438.00;;;19.10
16956;BMP180;8594;52.052;8.354;2023-07-20T05:20:06;100442.00;;;19.10
16956;BMP180;8594;52.052;8.354;2023-07-20T05:22:35;100444.00;;;19.10
16956;BMP180;8594;52.052;8.354;2023-07-20T05:25:07;100447.00;;;19.00
16956;BMP180;8594;52.052;8.354;2023-07-20T05:27:36;100444.00;;;19.20
16956;BMP180;8594;52.052;8.354;2023-07-20T05:30:06;100443.00;;;19.10
16956;BMP180;8594;52.052;8.354;2023-07-20T05:32:33;100442.00;;;19.30
16956;BMP180;8594;52.052;8.354;2023-07-20T05:35:00;100437.00;;;19.10
16956;BMP180;8594;52.052;8.354;2023-07-20T05:37:27;100445.00;;;19.30
16956;BMP180;8594;52.052;8.354;2023-07-20T05:39:54;100451.00;;;19.40
16956;BMP180;8594;52.052;8.354;2023-07-20T05:42:22;100446.00;;;19.50
16956;BMP180;8594;52.052;8.354;2023-07-20T05:44:48;100435.00;;;19.50
16956;BMP180;8594;52.052;8.354;2023-07-20T05:47:20;100443.00;;;19.50
16956;BMP180;8594;52.052;8.354;2023-07-20T05:49:47;100444.00;;;19.70
16956;BMP180;8594;52.052;8.354;2023-07-20T05:52:14;100447.00;;;19.80
16956;BMP180;8594;52.052;8.354;2023-07-20T05:54:40;100439.00;;;19.80
16956;BMP180;8594;52.052;8.354;2023-07-20T05:57:08;100447.00;;;20.20
16956;BMP180;8594;52.052;8.354;2023-07-20T05:59:35;100444.00;;;20.50
16956;BMP180;8594;52.052;8.354;2023-07-20T06:02:02;100449.00;;;20.70
16956;BMP180;8594;52.052;8.354;2023-07-20T06:04:30;100449.00;;;21.00
16956;BMP180;8594;52.052;8.354;2023-07-20T06:06:57;100456.00;;;21.00
16956;BMP180;8594;52.052;8.354;2023-07-20T06:09:24;100462.00;;;20.40
16956;BMP180;8594;52.052;8.354;2023-07-20T06:11:51;100456.00;;;20.90
16956;BMP180;8594;52.052;8.354;2023-07-20T06:14:18;100468.00;;;20.70
16956;BMP180;8594;52.052;8.354;2023-07-20T06:16:45;100460.00;;;21.10
16956;BMP180;8594;52.052;8.354;2023-07-20T06:19:12;100468.00;;;21.40
16956;BMP180;8594;52.052;8.354;2023-07-20T06:21:40;100472.00;;;21.60
16956;BMP180;8594;52.052;8.354;2023-07-20T06:24:07;100470.00;;;21.40
16956;BMP180;8594;52.052;8.354;2023-07-20T06:26:34;100465.00;;;21.40
16956;BMP180;8594;52.052;8.354;2023-07-20T06:29:05;100467.00;;;21.80
16956;BMP180;8594;52.052;8.354;2023-07-20T06:31:32;100477.00;;;21.60
16956;BMP180;8594;52.052;8.354;2023-07-20T06:33:59;100481.00;;;21.10
16956;BMP180;8594;52.052;8.354;2023-07-20T06:36:27;100479.00;;;21.00
16956;BMP180;8594;52.052;8.354;2023-07-20T06:38:55;100478.00;;;20.80
16956;BMP180;8594;52.052;8.354;2023-07-20T06:41:22;100472.00;;;20.80
16956;BMP180;8594;52.052;8.354;2023-07-20T06:43:50;100480.00;;;21.40
16956;BMP180;8594;52.052;8.354;2023-07-20T06:46:18;100488.00;;;21.70
16956;BMP180;8594;52.052;8.354;2023-07-20T06:48:45;100484.00;;;20.90
16956;BMP180;8594;52.052;8.354;2023-07-20T06:51:11;100477.00;;;21.30
16956;BMP180;8594;52.052;8.354;2023-07-20T06:53:38;100483.00;;;22.20
16956;BMP180;8594;52.052;8.354;2023-07-20T06:56:06;100475.00;;;21.80
16956;BMP180;8594;52.052;8.354;2023-07-20T06:58:33;100485.00;;;22.70
16956;BMP180;8594;52.052;8.354;2023-07-20T07:01:05;100491.00;;;22.40
16956;BMP180;8594;52.052;8.354;2023-07-20T07:03:32;100486.00;;;23.00
16956;BMP180;8594;52.052;8.354;2023-07-20T07:05:59;100491.00;;;22.70
16956;BMP180;8594;52.052;8.354;2023-07-20T07:08:26;100483.00;;;23.00
16956;BMP180;8594;52.052;8.354;2023-07-20T07:10:53;100491.00;;;22.80
16956;BMP180;8594;52.052;8.354;2023-07-20T07:13:21;100489.00;;;23.10
16956;BMP180;8594;52.052;8.354;2023-07-20T07:15:48;100504.00;;;23.40
16956;BMP180;8594;52.052;8.354;2023-07-20T07:18:15;100507.00;;;22.30
16956;BMP180;8594;52.052;8.354;2023-07-20T07:20:51;100503.00;;;22.40
16956;BMP180;8594;52.052;8.354;2023-07-20T07:23:18;100508.00;;;22.20
16956;BMP180;8594;52.052;8.354;2023-07-20T07:25:46;100508.00;;;22.10
16956;BMP180;8594;52.052;8.354;2023-07-20T07:28:13;100515.00;;;21.90
16956;BMP180;8594;52.052;8.354;2023-07-20T07:30:41;100514.00;;;21.40
16956;BMP180;8594;52.052;8.354;2023-07-20T07:33:08;100515.00;;;21.50
16956;BMP180;8594;52.052;8.354;2023-07-20T07:35:35;100506.00;;;21.40
16956;BMP180;8594;52.052;8.354;2023-07-20T07:38:02;100513.00;;;22.20
16956;BMP180;8594;52.052;8.354;2023-07-20T07:40:29;100519.00;;;22.00
16956;BMP180;8594;52.052;8.354;2023-07-20T07:42:56;100519.00;;;21.70
16956;BMP180;8594;52.052;8.354;2023-07-20T07:45:23;100518.00;;;22.50
16956;BMP180;8594;52.052;8.354;2023-07-20T07:47:51;100526.00;;;23.50
16956;BMP180;8594;52.052;8.354;2023-07-20T07:50:18;100526.00;;;23.80
16956;BMP180;8594;52.052;8.354;2023-07-20T07:52:45;100529.00;;;23.90
16956;BMP180;8594;52.052;8.354;2023-07-20T07:55:12;100532.00;;;24.00
16956;BMP180;8594;52.052;8.354;2023-07-20T07:57:39;100533.00;;;24.30
16956;BMP180;8594;52.052;8.354;2023-07-20T08:00:07;100530.00;;;24.90
16956;BMP180;8594;52.052;8.354;2023-07-20T08:02:38;100545.00;;;24.70
16956;BMP180;8594;52.052;8.354;2023-07-20T08:05:06;100537.00;;;24.50
16956;BMP180;8594;52.052;8.354;2023-07-20T08:07:33;100543.00;;;25.00
16956;BMP180;8594;52.052;8.354;2023-07-20T08:10:00;100551.00;;;24.60
16956;BMP180;8594;52.052;8.354;2023-07-20T08:12:27;100551.00;;;24.70
16956;BMP180;8594;52.052;8.354;2023-07-20T08:14:54;100557.00;;;23.90
16956;BMP180;8594;52.052;8.354;2023-07-20T08:17:21;100546.00;;;24.00
16956;BMP180;8594;52.052;8.354;2023-07-20T08:19:47;100556.00;;;23.90
16956;BMP180;8594;52.052;8.354;2023-07-20T08:22:16;100554.00;;;24.00
16956;BMP180;8594;52.052;8.354;2023-07-20T08:24:43;100548.00;;;24.20
16956;BMP180;8594;52.052;8.354;2023-07-20T08:27:10;100555.00;;;24.10
16956;BMP180;8594;52.052;8.354;2023-07-20T08:29:38;100560.00;;;23.30
16956;BMP180;8594;52.052;8.354;2023-07-20T08:32:06;100558.00;;;23.00
16956;BMP180;8594;52.052;8.354;2023-07-20T08:34:34;100553.00;;;23.90
16956;BMP180;8594;52.052;8.354;2023-07-20T08:37:00;100547.00;;;23.90
16956;BMP180;8594;52.052;8.354;2023-07-20T08:39:29;100548.00;;;24.70
16956;BMP180;8594;52.052;8.354;2023-07-20T08:41:57;100542.00;;;24.60
16956;BMP180;8594;52.052;8.354;2023-07-20T08:44:27;100552.00;;;24.30
16956;BMP180;8594;52.052;8.354;2023-07-20T08:46:55;100541.00;;;25.00
16956;BMP180;8594;52.052;8.354;2023-07-20T08:49:22;100543.00;;;25.60
16956;BMP180;8594;52.052;8.354;2023-07-20T08:51:51;100550.00;;;25.30
16956;BMP180;8594;52.052;8.354;2023-07-20T08:54:19;100559.00;;;26.10
16956;BMP180;8594;52.052;8.354;2023-07-20T08:56:48;100571.00;;;25.60
16956;BMP180;8594;52.052;8.354;2023-07-20T08:59:17;100560.00;;;24.90
16956;BMP180;8594;52.052;8.354;2023-07-20T09:01:46;100563.00;;;24.60
16956;BMP180;8594;52.052;8.354;2023-07-20T09:04:13;100568.00;;;24.40
16956;BMP180;8594;52.052;8.354;2023-07-20T09:06:42;100564.00;;;24.60
16956;BMP180;8594;52.052;8.354;2023-07-20T09:09:09;100560.00;;;25.50
16956;BMP180;8594;52.052;8.354;2023-07-20T09:11:37;100565.00;;;25.70
16956;BMP180;8594;52.052;8.354;2023-07-20T09:14:07;100566.00;;;26.10
16956;BMP180;8594;52.052;8.354;2023-07-20T09:16:47;100561.00;;;26.30
16956;BMP180;8594;52.052;8.354;2023-07-20T09:19:15;100556.00;;;25.40
16956;BMP180;8594;52.052;8.354;2023-07-20T09:21:45;100551.00;;;25.70
16956;BMP180;8594;52.052;8.354;2023-07-20T09:24:13;100557.00;;;26.40
16956;BMP180;8594;52.052;8.354;2023-07-20T09:26:42;100563.00;;;25.20
16956;BMP180;8594;52.052;8.354;2023-07-20T09:29:11;100557.00;;;25.90
16956;BMP180;8594;52.052;8.354;2023-07-20T09:31:38;100557.00;;;26.20
16956;BMP180;8594;52.052;8.354;2023-07-20T09:34:05;100561.00;;;25.90
16956;BMP180;8594;52.052;8.354;2023-07-20T09:36:35;100564.00;;;26.00
16956;BMP180;8594;52.052;8.354;2023-07-20T09:39:11;100559.00;;;26.10
16956;BMP180;8594;52.052;8.354;2023-07-20T09:41:41;100573.00;;;26.50
16956;BMP180;8594;52.052;8.354;2023-07-20T09:44:10;100573.00;;;25.90
16956;BMP180;8594;52.052;8.354;2023-07-20T09:46:45;100574.00;;;25.70
16956;BMP180;8594;52.052;8.354;2023-07-20T09:49:13;100572.00;;;25.80
16956;BMP180;8594;52.052;8.354;2023-07-20T09:51:41;100568.00;;;26.10
16956;BMP180;8594;52.052;8.354;2023-07-20T09:54:08;100569.00;;;26.40
16956;BMP180;8594;52.052;8.354;2023-07-20T09:56:38;100566.00;;;26.50
16956;BMP180;8594;52.052;8.354;2023-07-20T09:59:06;100564.00;;;26.30
16956;BMP180;8594;52.052;8.354;2023-07-20T10:01:34;100567.00;;;26.20
16956;BMP180;8594;52.052;8.354;2023-07-20T10:04:04;100571.00;;;25.90
16956;BMP180;8594;52.052;8.354;2023-07-20T10:06:34;100563.00;;;25.80
16956;BMP180;8594;52.052;8.354;2023-07-20T10:09:03;100566.00;;;25.50
16956;BMP180;8594;52.052;8.354;2023-07-20T10:11:34;100567.00;;;26.10
16956;BMP180;8594;52.052;8.354;2023-07-20T10:14:04;100567.00;;;26.80
16956;BMP180;8594;52.052;8.354;2023-07-20T10:16:35;100571.00;;;26.80
16956;BMP180;8594;52.052;8.354;2023-07-20T10:19:07;100554.00;;;26.70
16956;BMP180;8594;52.052;8.354;2023-07-20T10:21:41;100560.00;;;27.30
16956;BMP180;8594;52.052;8.354;2023-07-20T10:24:09;100560.00;;;26.90
16956;BMP180;8594;52.052;8.354;2023-07-20T10:26:38;100558.00;;;27.30
16956;BMP180;8594;52.052;8.354;2023-07-20T10:29:07;100568.00;;;27.40
16956;BMP180;8594;52.052;8.354;2023-07-20T10:31:37;100571.00;;;26.90
16956;BMP180;8594;52.052;8.354;2023-07-20T10:34:04;100562.00;;;25.80
16956;BMP180;8594;52.052;8.354;2023-07-20T10:36:31;100560.00;;;26.00
16956;BMP180;8594;52.052;8.354;2023-07-20T10:38:58;100551.00;;;26.90
16956;BMP180;8594;52.052;8.354;2023-07-20T10:41:29;100549.00;;;26.40
16956;BMP180;8594;52.052;8.354;2023-07-20T10:44:02;100548.00;;;27.00
16956;BMP180;8594;52.052;8.354;2023-07-20T10:46:44;100544.00;;;27.40
16956;BMP180;8594;52.052;8.354;2023-07-20T10:49:13;100552.00;;;27.40
16956;BMP180;8594;52.052;8.354;2023-07-20T10:51:42;100558.00;;;27.20
16956;BMP180;8594;52.052;8.354;2023-07-20T10:54:33;100563.00;;;27.60
16956;BMP180;8594;52.052;8.354;2023-07-20T10:57:23;100552.00;;;26.90
16956;BMP180;8594;52.052;8.354;2023-07-20T10:59:50;100557.00;;;26.40
16956;BMP180;8594;52.052;8.354;2023-07-20T11:02:19;100559.00;;;26.70
16956;BMP180;8594;52.052;8.354;2023-07-20T11:04:47;100548.00;;;26.60
16956;BMP180;8594;52.052;8.354;2023-07-20T11:07:36;100547.00;;;27.10
16956;BMP180;8594;52.052;8.354;2023-07-20T11:10:13;100545.00;;;27.60
16956;BMP180;8594;52.052;8.354;2023-07-20T11:12:41;100543.00;;;27.30
16956;BMP180;8594;52.052;8.354;2023-07-20T11:15:08;100548.00;;;27.50
16956;BMP180;8594;52.052;8.354;2023-07-20T11:17:37;100546.00;;;27.60
16956;BMP180;8594;52.052;8.354;2023-07-20T11:20:06;100529.00;;;27.90
16956;BMP180;8594;52.052;8.354;2023-07-20T11:22:34;100549.00;;;27.60
16956;BMP180;8594;52.052;8.354;2023-07-20T11:25:01;100554.00;;;27.80
16956;BMP180;8594;52.052;8.354;2023-07-20T11:27:29;100553.00;;;28.40
16956;BMP180;8594;52.052;8.354;2023-07-20T11:29:56;100553.00;;;27.90
16956;BMP180;8594;52.052;8.354;2023-07-20T11:32:24;100548.00;;;27.50
16956;BMP180;8594;52.052;8.354;2023-07-20T11:34:52;100543.00;;;27.40
16956;BMP180;8594;52.052;8.354;2023-07-20T11:37:19;100543.00;;;27.80
16956;BMP180;8594;52.052;8.354;2023-07-20T11:39:46;100545.00;;;27.90
16956;BMP180;8594;52.052;8.354;2023-07-20T11:42:14;100533.00;;;27.60
16956;BMP180;8594;52.052;8.354;2023-07-20T11:44:42;100538.00;;;27.60
16956;BMP180;8594;52.052;8.354;2023-07-20T11:47:10;100542.00;;;27.00
16956;BMP180;8594;52.052;8.354;2023-07-20T11:49:40;100537.00;;;27.60
16956;BMP180;8594;52.052;8.354;2023-07-20T11:52:11;100525.00;;;28.30
16956;BMP180;8594;52.052;8.354;2023-07-20T11:54:40;100531.00;;;28.70
16956;BMP180;8594;52.052;8.354;2023-07-20T11:57:15;100526.00;;;28.10
16956;BMP180;8594;52.052;8.354;2023-07-20T11:59:53;100534.00;;;28.40
16956;BMP180;8594;52.052;8.354;2023-07-20T12:02:23;100540.00;;;28.60
16956;BMP180;8594;52.052;8.354;2023-07-20T12:04:52;100525.00;;;27.80
16956;BMP180;8594;52.052;8.354;2023-07-20T12:07:21;100526.00;;;27.60
16956;BMP180;8594;52.052;8.354;2023-07-20T12:10:03;100530.00;;;27.60
16956;BMP180;8594;52.052;8.354;2023-07-20T12:12:31;100524.00;;;26.70
16956;BMP180;8594;52.052;8.354;2023-07-20T12:15:19;100524.00;;;27.50
16956;BMP180;8594;52.052;8.354;2023-07-20T12:17:49;100513.00;;;27.70
16956;BMP180;8594;52.052;8.354;2023-07-20T12:20:26;100517.00;;;27.70
16956;BMP180;8594;52.052;8.354;2023-07-20T12:22:58;100517.00;;;28.40
16956;BMP180;8594;52.052;8.354;2023-07-20T12:25:34;100515.00;;;28.10
16956;BMP180;8594;52.052;8.354;2023-07-20T12:28:01;100519.00;;;28.40
16956;BMP180;8594;52.052;8.354;2023-07-20T12:30:29;100508.00;;;27.80
16956;BMP180;8594;52.052;8.354;2023-07-20T12:32:56;100502.00;;;28.20
16956;BMP180;8594;52.052;8.354;2023-07-20T12:35:23;100511.00;;;28.60
16956;BMP180;8594;52.052;8.354;2023-07-20T12:37:50;100512.00;;;28.00
16956;BMP180;8594;52.052;8.354;2023-07-20T12:40:18;100515.00;;;28.50
16956;BMP180;8594;52.052;8.354;2023-07-20T12:42:45;100507.00;;;29.00
16956;BMP180;8594;52.052;8.354;2023-07-20T12:45:12;100510.00;;;28.60
16956;BMP180;8594;52.052;8.354;2023-07-20T12:47:39;100512.00;;;28.40
16956;BMP180;8594;52.052;8.354;2023-07-20T12:50:08;100503.00;;;27.70
16956;BMP180;8594;52.052;8.354;2023-07-20T12:52:37;100503.00;;;27.80
16956;BMP180;8594;52.052;8.354;2023-07-20T12:55:06;100505.00;;;27.40
16956;BMP180;8594;52.052;8.354;2023-07-20T12:57:35;100508.00;;;27.90
16956;BMP180;8594;52.052;8.354;2023-07-20T13:00:03;100510.00;;;27.70
16956;BMP180;8594;52.052;8.354;2023-07-20T13:02:32;100505.00;;;27.90
16956;BMP180;8594;52.052;8.354;2023-07-20T13:04:59;100504.00;;;27.50
16956;BMP180;8594;52.052;8.354;2023-07-20T13:07:31;100501.00;;;28.00
16956;BMP180;8594;52.052;8.354;2023-07-20T13:09:58;100489.00;;;28.10
16956;BMP180;8594;52.052;8.354;2023-07-20T13:12:26;100493.00;;;28.10
16956;BMP180;8594;52.052;8.354;2023-07-20T13:14:55;100501.00;;;27.30
16956;BMP180;8594;52.052;8.354;2023-07-20T13:17:23;100493.00;;;27.50
16956;BMP180;8594;52.052;8.354;2023-07-20T13:19:50;100487.00;;;27.60
16956;BMP180;8594;52.052;8.354;2023-07-20T13:22:17;100486.00;;;28.40
16956;BMP180;8594;52.052;8.354;2023-07-20T13:24:45;100485.00;;;27.90
16956;BMP180;8594;52.052;8.354;2023-07-20T13:27:14;100488.00;;;28.00
16956;BMP180;8594;52.052;8.354;2023-07-20T13:29:41;100491.00;;;28.00
16956;BMP180;8594;52.052;8.354;2023-07-20T13:32:12;100492.00;;;28.20
16956;BMP180;8594;52.052;8.354;2023-07-20T13:34:39;100491.00;;;28.60
16956;BMP180;8594;52.052;8.354;2023-07-20T13:37:08;100498.00;;;28.40
16956;BMP180;8594;52.052;8.354;2023-07-20T13:39:36;100481.00;;;28.30
16956;BMP180;8594;52.052;8.354;2023-07-20T13:42:04;100495.00;;;28.20
16956;BMP180;8594;52.052;8.354;2023-07-20T13:44:31;100494.00;;;27.80
16956;BMP180;8594;52.052;8.354;2023-07-20T13:46:58;100494.00;;;27.80
16956;BMP180;8594;52.052;8.354;2023-07-20T13:49:26;100482.00;;;27.50
16956;BMP180;8594;52.052;8.354;2023-07-20T13:51:53;100498.00;;;27.70
16956;BMP180;8594;52.052;8.354;2023-07-20T13:54:20;100494.00;;;27.70
16956;BMP180;8594;52.052;8.354;2023-07-20T13:56:48;100495.00;;;27.70
16956;BMP180;8594;52.052;8.354;2023-07-20T13:59:15;100498.00;;;27.60
16956;BMP180;8594;52.052;8.354;2023-07-20T14:01:41;100498.00;;;27.60
16956;BMP180;8594;52.052;8.354;2023-07-20T14:04:08;100505.00;;;27.60
16956;BMP180;8594;52.052;8.354;2023-07-20T14:06:37;100504.00;;;27.30
16956;BMP180;8594;52.052;8.354;2023-07-20T14:09:04;100501.00;;;27.30
16956;BMP180;8594;52.052;8.354;2023-07-20T14:11:30;100503.00;;;27.00
16956;BMP180;8594;52.052;8.354;2023-07-20T14:13:57;100497.00;;;27.00
16956;BMP180;8594;52.052;8.354;2023-07-20T14:16:25;100501.00;;;27.20
16956;BMP180;8594;52.052;8.354;2023-07-20T14:18:52;100506.00;;;27.10
16956;BMP180;8594;52.052;8.354;2023-07-20T14:21:22;100502.00;;;26.40